sensor_id;sensor_type;location;lat;lon;timestamp;noise_LAeq;noise_LA_min;noise_LA_max;noise_LA01;noise_LA95
77133;Laerm;26708;50.304;19.028;2023-11-22T00:00:10;46.56;43.77;50.05;;
77133;Laerm;26708;50.304;19.028;2023-11-22T00:02:15;46.52;43.73;49.05;;
77133;Laerm;26708;50.304;19.028;2023-11-22T00:04:20;46.37;43.84;49.15;;
77133;Laerm;26708;50.304;19.028;2023-11-22T00:06:24;46.86;44.37;51.81;;
77133;Laerm;26708;50.304;19.028;2023-11-22T00:08:31;46.39;43.59;48.70;;
77133;Laerm;26708;50.304;19.028;2023-11-22T00:10:36;46.59;44.00;51.14;;
77133;Laerm;26708;50.304;19.028;2023-11-22T00:12:43;46.48;43.54;49.20;;
77133;Laerm;26708;50.304;19.028;2023-11-22T00:14:45;46.45;44.07;50.87;;
77133;Laerm;26708;50.304;19.028;2023-11-22T00:16:51;46.72;43.94;51.45;;
77133;Laerm;26708;50.304;19.028;2023-11-22T00:18:55;46.60;43.86;49.86;;
77133;Laerm;26708;50.304;19.028;2023-11-22T00:20:59;46.48;44.01;48.81;;
77133;Laerm;26708;50.304;19.028;2023-11-22T00:23:05;46.69;43.84;51.26;;
77133;Laerm;26708;50.304;19.028;2023-11-22T00:25:09;50.68;44.44;63.26;;
77133;Laerm;26708;50.304;19.028;2023-11-22T00:27:14;53.07;43.99;68.27;;
77133;Laerm;26708;50.304;19.028;2023-11-22T00:29:24;46.98;44.02;59.77;;
77133;Laerm;26708;50.304;19.028;2023-11-22T00:31:28;47.05;43.63;51.99;;
77133;Laerm;26708;50.304;19.028;2023-11-22T00:33:33;46.85;43.92;52.93;;
77133;Laerm;26708;50.304;19.028;2023-11-22T00:35:38;46.78;43.66;50.80;;
77133;Laerm;26708;50.304;19.028;2023-11-22T00:37:40;46.62;43.99;50.06;;
77133;Laerm;26708;50.304;19.028;2023-11-22T00:39:45;46.71;44.23;48.98;;
77133;Laerm;26708;50.304;19.028;2023-11-22T00:41:50;46.78;44.41;51.30;;
77133;Laerm;26708;50.304;19.028;2023-11-22T00:43:54;47.46;44.14;55.33;;
77133;Laerm;26708;50.304;19.028;2023-11-22T00:46:01;46.96;44.09;49.75;;
77133;Laerm;26708;50.304;19.028;2023-11-22T00:48:07;46.91;44.33;49.13;;
77133;Laerm;26708;50.304;19.028;2023-11-22T00:50:11;46.92;44.57;49.36;;
77133;Laerm;26708;50.304;19.028;2023-11-22T00:52:15;50.54;43.66;60.13;;
77133;Laerm;26708;50.304;19.028;2023-11-22T00:54:21;46.49;43.99;52.09;;
77133;Laerm;26708;50.304;19.028;2023-11-22T00:56:26;46.60;43.68;48.90;;
77133;Laerm;26708;50.304;19.028;2023-11-22T00:58:31;46.59;43.89;49.24;;
77133;Laerm;26708;50.304;19.028;2023-11-22T01:00:56;53.21;43.90;71.74;;
77133;Laerm;26708;50.304;19.028;2023-11-22T01:03:03;46.85;44.11;51.83;;
77133;Laerm;26708;50.304;19.028;2023-11-22T01:05:13;46.55;43.96;49.26;;
77133;Laerm;26708;50.304;19.028;2023-11-22T01:07:18;46.50;43.75;48.82;;
77133;Laerm;26708;50.304;19.028;2023-11-22T01:09:22;46.95;44.03;53.83;;
77133;Laerm;26708;50.304;19.028;2023-11-22T01:11:27;46.59;43.74;49.49;;
77133;Laerm;26708;50.304;19.028;2023-11-22T01:13:32;47.12;43.95;52.04;;
77133;Laerm;26708;50.304;19.028;2023-11-22T01:15:42;46.49;44.01;49.25;;
77133;Laerm;26708;50.304;19.028;2023-11-22T01:17:46;46.60;43.61;49.61;;
77133;Laerm;26708;50.304;19.028;2023-11-22T01:19:54;46.69;43.97;51.15;;
77133;Laerm;26708;50.304;19.028;2023-11-22T01:21:59;46.60;43.46;52.12;;
77133;Laerm;26708;50.304;19.028;2023-11-22T01:24:05;46.94;43.85;51.29;;
77133;Laerm;26708;50.304;19.028;2023-11-22T01:26:11;46.42;43.92;48.92;;
77133;Laerm;26708;50.304;19.028;2023-11-22T01:28:15;46.74;43.98;53.46;;
77133;Laerm;26708;50.304;19.028;2023-11-22T01:30:20;46.68;44.10;49.45;;
77133;Laerm;26708;50.304;19.028;2023-11-22T01:32:25;46.46;43.86;49.03;;
77133;Laerm;26708;50.304;19.028;2023-11-22T01:34:29;46.48;44.01;49.00;;
77133;Laerm;26708;50.304;19.028;2023-11-22T01:36:42;46.72;44.13;49.07;;
77133;Laerm;26708;50.304;19.028;2023-11-22T01:38:48;46.49;44.24;55.37;;
77133;Laerm;26708;50.304;19.028;2023-11-22T01:40:53;46.80;43.53;51.67;;
77133;Laerm;26708;50.304;19.028;2023-11-22T01:42:58;46.74;44.15;50.19;;
77133;Laerm;26708;50.304;19.028;2023-11-22T01:45:06;46.55;43.83;49.50;;
77133;Laerm;26708;50.304;19.028;2023-11-22T01:47:11;46.64;43.99;49.53;;
77133;Laerm;26708;50.304;19.028;2023-11-22T01:49:16;46.54;43.73;50.62;;
77133;Laerm;26708;50.304;19.028;2023-11-22T01:51:20;47.07;43.50;52.58;;
77133;Laerm;26708;50.304;19.028;2023-11-22T01:53:29;46.56;43.81;50.34;;
77133;Laerm;26708;50.304;19.028;2023-11-22T01:55:35;46.82;44.22;52.45;;
77133;Laerm;26708;50.304;19.028;2023-11-22T01:57:41;46.65;43.55;49.26;;
77133;Laerm;26708;50.304;19.028;2023-11-22T01:59:46;46.80;44.03;50.78;;
77133;Laerm;26708;50.304;19.028;2023-11-22T02:01:53;46.83;43.95;50.30;;
77133;Laerm;26708;50.304;19.028;2023-11-22T02:03:58;46.54;43.51;49.08;;
77133;Laerm;26708;50.304;19.028;2023-11-22T02:06:04;47.16;43.90;53.22;;
77133;Laerm;26708;50.304;19.028;2023-11-22T02:08:09;46.67;44.08;56.89;;
77133;Laerm;26708;50.304;19.028;2023-11-22T02:10:17;46.60;44.37;49.12;;
77133;Laerm;26708;50.304;19.028;2023-11-22T02:12:23;47.00;44.03;50.70;;
77133;Laerm;26708;50.304;19.028;2023-11-22T02:14:28;47.16;44.16;54.36;;
77133;Laerm;26708;50.304;19.028;2023-11-22T02:16:33;46.68;43.49;53.16;;
77133;Laerm;26708;50.304;19.028;2023-11-22T02:18:38;46.97;43.74;55.37;;
77133;Laerm;26708;50.304;19.028;2023-11-22T02:20:44;47.06;44.12;53.30;;
77133;Laerm;26708;50.304;19.028;2023-11-22T02:22:49;46.73;44.19;49.67;;
77133;Laerm;26708;50.304;19.028;2023-11-22T02:24:58;46.93;43.88;51.94;;
77133;Laerm;26708;50.304;19.028;2023-11-22T02:27:03;46.54;43.90;51.23;;
77133;Laerm;26708;50.304;19.028;2023-11-22T02:29:08;46.79;44.04;50.91;;
77133;Laerm;26708;50.304;19.028;2023-11-22T02:31:14;46.53;44.12;48.95;;
77133;Laerm;26708;50.304;19.028;2023-11-22T02:33:19;46.83;43.82;50.79;;
77133;Laerm;26708;50.304;19.028;2023-11-22T02:35:24;46.52;44.19;49.26;;
77133;Laerm;26708;50.304;19.028;2023-11-22T02:37:26;46.57;44.09;49.10;;
77133;Laerm;26708;50.304;19.028;2023-11-22T02:39:46;53.59;44.03;67.79;;
77133;Laerm;26708;50.304;19.028;2023-11-22T02:42:01;46.54;43.85;48.97;;
77133;Laerm;26708;50.304;19.028;2023-11-22T02:44:06;46.64;43.98;49.06;;
77133;Laerm;26708;50.304;19.028;2023-11-22T02:46:11;46.95;43.89;51.87;;
77133;Laerm;26708;50.304;19.028;2023-11-22T02:48:15;46.61;43.75;48.93;;
77133;Laerm;26708;50.304;19.028;2023-11-22T02:50:21;46.62;43.81;48.93;;
77133;Laerm;26708;50.304;19.028;2023-11-22T02:52:25;46.81;43.97;52.19;;
77133;Laerm;26708;50.304;19.028;2023-11-22T02:54:29;46.67;43.96;49.78;;
77133;Laerm;26708;50.304;19.028;2023-11-22T02:56:35;46.70;43.63;50.18;;
77133;Laerm;26708;50.304;19.028;2023-11-22T02:58:42;46.90;43.82;51.09;;
77133;Laerm;26708;50.304;19.028;2023-11-22T03:00:47;46.58;43.31;50.42;;
77133;Laerm;26708;50.304;19.028;2023-11-22T03:02:56;50.52;43.98;65.60;;
77133;Laerm;26708;50.304;19.028;2023-11-22T03:05:01;46.52;43.61;49.24;;
77133;Laerm;26708;50.304;19.028;2023-11-22T03:07:05;50.18;44.13;65.55;;
77133;Laerm;26708;50.304;19.028;2023-11-22T03:09:08;46.85;43.66;51.19;;
77133;Laerm;26708;50.304;19.028;2023-11-22T03:11:15;51.19;43.94;66.30;;
77133;Laerm;26708;50.304;19.028;2023-11-22T03:13:20;46.58;43.80;49.54;;
77133;Laerm;26708;50.304;19.028;2023-11-22T03:15:28;46.64;44.39;49.12;;
77133;Laerm;26708;50.304;19.028;2023-11-22T03:17:36;46.63;44.05;49.57;;
77133;Laerm;26708;50.304;19.028;2023-11-22T03:19:41;46.87;43.81;52.47;;
77133;Laerm;26708;50.304;19.028;2023-11-22T03:21:47;46.92;43.49;51.59;;
77133;Laerm;26708;50.304;19.028;2023-11-22T03:23:51;47.10;43.98;52.90;;
77133;Laerm;26708;50.304;19.028;2023-11-22T03:25:57;47.16;44.35;52.62;;
77133;Laerm;26708;50.304;19.028;2023-11-22T03:28:04;51.06;44.17;65.37;;
77133;Laerm;26708;50.304;19.028;2023-11-22T03:30:09;47.94;44.44;69.90;;
77133;Laerm;26708;50.304;19.028;2023-11-22T03:32:19;47.20;44.22;55.25;;
77133;Laerm;26708;50.304;19.028;2023-11-22T03:34:24;47.31;44.20;52.05;;
77133;Laerm;26708;50.304;19.028;2023-11-22T03:36:26;53.10;44.50;70.30;;
77133;Laerm;26708;50.304;19.028;2023-11-22T03:38:31;51.68;44.75;66.54;;
77133;Laerm;26708;50.304;19.028;2023-11-22T03:40:36;48.03;44.81;54.04;;
77133;Laerm;26708;50.304;19.028;2023-11-22T03:42:42;47.95;44.46;56.82;;
77133;Laerm;26708;50.304;19.028;2023-11-22T03:44:49;51.60;44.32;66.33;;
77133;Laerm;26708;50.304;19.028;2023-11-22T03:46:56;47.92;44.34;66.52;;
77133;Laerm;26708;50.304;19.028;2023-11-22T03:49:03;51.26;44.19;66.47;;
77133;Laerm;26708;50.304;19.028;2023-11-22T03:51:08;47.32;43.73;57.27;;
77133;Laerm;26708;50.304;19.028;2023-11-22T03:53:10;59.84;44.95;79.01;;
77133;Laerm;26708;50.304;19.028;2023-11-22T03:55:15;48.33;44.37;60.87;;
77133;Laerm;26708;50.304;19.028;2023-11-22T03:57:20;47.77;44.50;55.79;;
77133;Laerm;26708;50.304;19.028;2023-11-22T03:59:22;47.43;44.15;56.63;;
77133;Laerm;26708;50.304;19.028;2023-11-22T04:01:27;47.81;44.13;62.57;;
77133;Laerm;26708;50.304;19.028;2023-11-22T04:03:32;47.20;44.68;51.35;;
77133;Laerm;26708;50.304;19.028;2023-11-22T04:05:40;47.30;44.26;50.69;;
77133;Laerm;26708;50.304;19.028;2023-11-22T04:07:44;47.62;44.79;57.97;;
77133;Laerm;26708;50.304;19.028;2023-11-22T04:09:49;50.48;45.59;65.39;;
77133;Laerm;26708;50.304;19.028;2023-11-22T04:11:54;47.63;44.74;52.30;;
77133;Laerm;26708;50.304;19.028;2023-11-22T04:13:59;49.81;44.48;63.14;;
77133;Laerm;26708;50.304;19.028;2023-11-22T04:16:04;50.49;44.54;62.15;;
77133;Laerm;26708;50.304;19.028;2023-11-22T04:18:10;48.37;44.75;52.10;;
77133;Laerm;26708;50.304;19.028;2023-11-22T04:20:15;49.88;45.03;62.72;;
77133;Laerm;26708;50.304;19.028;2023-11-22T04:22:22;82.78;45.93;109.72;;
77133;Laerm;26708;50.304;19.028;2023-11-22T04:24:27;56.89;44.93;70.52;;
77133;Laerm;26708;50.304;19.028;2023-11-22T04:26:31;49.98;45.02;61.67;;
77133;Laerm;26708;50.304;19.028;2023-11-22T04:28:38;51.24;45.27;65.89;;
77133;Laerm;26708;50.304;19.028;2023-11-22T04:30:43;47.88;44.19;51.77;;
77133;Laerm;26708;50.304;19.028;2023-11-22T04:32:48;54.69;45.26;71.42;;
77133;Laerm;26708;50.304;19.028;2023-11-22T04:34:52;52.72;45.63;68.07;;
77133;Laerm;26708;50.304;19.028;2023-11-22T04:36:58;51.99;45.35;67.98;;
77133;Laerm;26708;50.304;19.028;2023-11-22T04:39:05;55.14;45.30;69.85;;
77133;Laerm;26708;50.304;19.028;2023-11-22T04:41:11;49.13;44.41;56.60;;
77133;Laerm;26708;50.304;19.028;2023-11-22T04:43:18;50.51;44.75;62.68;;
77133;Laerm;26708;50.304;19.028;2023-11-22T04:45:22;47.70;44.66;50.41;;
77133;Laerm;26708;50.304;19.028;2023-11-22T04:47:25;53.97;45.97;66.24;;
77133;Laerm;26708;50.304;19.028;2023-11-22T04:49:30;54.70;45.36;71.77;;
77133;Laerm;26708;50.304;19.028;2023-11-22T04:51:35;48.36;44.50;55.30;;
77133;Laerm;26708;50.304;19.028;2023-11-22T04:53:39;49.01;45.32;59.22;;
77133;Laerm;26708;50.304;19.028;2023-11-22T04:55:48;47.48;44.77;54.41;;
77133;Laerm;26708;50.304;19.028;2023-11-22T04:57:53;52.86;44.84;68.69;;
77133;Laerm;26708;50.304;19.028;2023-11-22T04:59:58;50.56;45.38;63.44;;
77133;Laerm;26708;50.304;19.028;2023-11-22T05:02:03;50.68;45.31;65.62;;
77133;Laerm;26708;50.304;19.028;2023-11-22T05:04:08;50.51;44.93;61.90;;
77133;Laerm;26708;50.304;19.028;2023-11-22T05:06:13;55.66;44.87;72.33;;
77133;Laerm;26708;50.304;19.028;2023-11-22T05:08:15;49.59;44.54;62.66;;
77133;Laerm;26708;50.304;19.028;2023-11-22T05:10:20;52.73;45.66;68.28;;
77133;Laerm;26708;50.304;19.028;2023-11-22T05:12:24;53.99;45.22;66.95;;
77133;Laerm;26708;50.304;19.028;2023-11-22T05:14:30;52.73;45.00;69.45;;
77133;Laerm;26708;50.304;19.028;2023-11-22T05:16:31;54.53;46.23;67.51;;
77133;Laerm;26708;50.304;19.028;2023-11-22T05:18:36;57.83;45.86;70.32;;
77133;Laerm;26708;50.304;19.028;2023-11-22T05:20:42;56.39;46.20;71.16;;
77133;Laerm;26708;50.304;19.028;2023-11-22T05:22:46;51.10;45.65;64.66;;
77133;Laerm;26708;50.304;19.028;2023-11-22T05:24:51;58.76;45.92;77.71;;
77133;Laerm;26708;50.304;19.028;2023-11-22T05:26:56;55.78;45.94;72.43;;
77133;Laerm;26708;50.304;19.028;2023-11-22T05:29:03;56.01;45.51;70.49;;
77133;Laerm;26708;50.304;19.028;2023-11-22T05:31:08;54.21;45.81;65.74;;
77133;Laerm;26708;50.304;19.028;2023-11-22T05:33:14;52.62;46.23;63.68;;
77133;Laerm;26708;50.304;19.028;2023-11-22T05:35:19;57.60;47.84;70.86;;
77133;Laerm;26708;50.304;19.028;2023-11-22T05:37:23;55.16;48.26;67.39;;
77133;Laerm;26708;50.304;19.028;2023-11-22T05:39:34;55.87;48.38;67.03;;
77133;Laerm;26708;50.304;19.028;2023-11-22T05:41:39;55.75;47.21;68.31;;
77133;Laerm;26708;50.304;19.028;2023-11-22T05:43:43;54.66;45.53;66.33;;
77133;Laerm;26708;50.304;19.028;2023-11-22T05:45:51;54.73;45.85;67.31;;
77133;Laerm;26708;50.304;19.028;2023-11-22T05:47:55;55.48;45.76;73.19;;
77133;Laerm;26708;50.304;19.028;2023-11-22T05:50:00;56.22;46.17;68.39;;
77133;Laerm;26708;50.304;19.028;2023-11-22T05:52:05;53.28;46.36;65.93;;
77133;Laerm;26708;50.304;19.028;2023-11-22T05:54:12;56.36;45.82;70.12;;
77133;Laerm;26708;50.304;19.028;2023-11-22T05:56:19;58.60;47.15;69.28;;
77133;Laerm;26708;50.304;19.028;2023-11-22T05:58:25;57.89;46.57;69.08;;
77133;Laerm;26708;50.304;19.028;2023-11-22T06:00:30;55.70;46.75;68.95;;
77133;Laerm;26708;50.304;19.028;2023-11-22T06:02:34;57.50;47.30;70.88;;
77133;Laerm;26708;50.304;19.028;2023-11-22T06:04:41;56.37;45.96;69.30;;
77133;Laerm;26708;50.304;19.028;2023-11-22T06:06:45;63.09;47.09;80.58;;
77133;Laerm;26708;50.304;19.028;2023-11-22T06:08:50;53.68;46.11;64.82;;
77133;Laerm;26708;50.304;19.028;2023-11-22T06:10:56;55.46;46.77;67.13;;
77133;Laerm;26708;50.304;19.028;2023-11-22T06:13:01;51.54;45.91;64.82;;
77133;Laerm;26708;50.304;19.028;2023-11-22T06:15:07;56.64;46.02;69.04;;
77133;Laerm;26708;50.304;19.028;2023-11-22T06:17:13;58.08;46.34;73.07;;
77133;Laerm;26708;50.304;19.028;2023-11-22T06:19:20;61.89;46.31;74.76;;
77133;Laerm;26708;50.304;19.028;2023-11-22T06:21:22;54.64;45.57;67.35;;
77133;Laerm;26708;50.304;19.028;2023-11-22T06:23:29;55.03;46.57;67.99;;
77133;Laerm;26708;50.304;19.028;2023-11-22T06:25:34;58.08;45.85;71.58;;
77133;Laerm;26708;50.304;19.028;2023-11-22T06:27:41;58.53;46.29;70.31;;
77133;Laerm;26708;50.304;19.028;2023-11-22T06:29:47;57.44;46.65;71.67;;
77133;Laerm;26708;50.304;19.028;2023-11-22T06:31:51;57.44;46.26;70.61;;
77133;Laerm;26708;50.304;19.028;2023-11-22T06:33:55;58.75;47.94;70.04;;
77133;Laerm;26708;50.304;19.028;2023-11-22T06:36:05;56.18;46.32;67.65;;
77133;Laerm;26708;50.304;19.028;2023-11-22T06:38:11;58.62;46.42;72.07;;
77133;Laerm;26708;50.304;19.028;2023-11-22T06:40:16;54.74;45.64;68.22;;
77133;Laerm;26708;50.304;19.028;2023-11-22T06:42:23;57.63;45.80;73.03;;
77133;Laerm;26708;50.304;19.028;2023-11-22T06:44:27;57.22;45.83;71.79;;
77133;Laerm;26708;50.304;19.028;2023-11-22T06:46:32;55.19;45.78;67.51;;
77133;Laerm;26708;50.304;19.028;2023-11-22T06:48:38;59.06;46.97;73.55;;
77133;Laerm;26708;50.304;19.028;2023-11-22T06:50:39;54.63;46.17;66.68;;
77133;Laerm;26708;50.304;19.028;2023-11-22T06:52:46;63.22;46.42;78.39;;
77133;Laerm;26708;50.304;19.028;2023-11-22T06:54:52;59.13;46.37;70.93;;
77133;Laerm;26708;50.304;19.028;2023-11-22T06:56:56;59.87;45.76;72.80;;
77133;Laerm;26708;50.304;19.028;2023-11-22T06:59:01;58.93;46.02;69.74;;
77133;Laerm;26708;50.304;19.028;2023-11-22T07:01:06;53.51;45.62;67.31;;
77133;Laerm;26708;50.304;19.028;2023-11-22T07:03:12;55.57;46.03;70.58;;
77133;Laerm;26708;50.304;19.028;2023-11-22T07:05:19;72.94;45.87;93.75;;
77133;Laerm;26708;50.304;19.028;2023-11-22T07:07:24;55.15;46.88;69.23;;
77133;Laerm;26708;50.304;19.028;2023-11-22T07:09:31;56.77;45.34;68.76;;
77133;Laerm;26708;50.304;19.028;2023-11-22T07:11:36;59.54;46.56;74.11;;
77133;Laerm;26708;50.304;19.028;2023-11-22T07:13:42;52.52;46.54;65.52;;
77133;Laerm;26708;50.304;19.028;2023-11-22T07:15:45;58.34;46.00;71.28;;
77133;Laerm;26708;50.304;19.028;2023-11-22T07:17:50;56.10;46.47;68.76;;
77133;Laerm;26708;50.304;19.028;2023-11-22T07:19:53;53.06;46.11;67.96;;
77133;Laerm;26708;50.304;19.028;2023-11-22T07:21:58;58.88;45.65;71.17;;
77133;Laerm;26708;50.304;19.028;2023-11-22T07:24:06;57.72;46.21;68.11;;
77133;Laerm;26708;50.304;19.028;2023-11-22T07:26:18;57.80;45.98;70.20;;
77133;Laerm;26708;50.304;19.028;2023-11-22T07:28:23;62.17;46.64;77.77;;
77133;Laerm;26708;50.304;19.028;2023-11-22T07:30:27;57.58;45.90;68.74;;
77133;Laerm;26708;50.304;19.028;2023-11-22T07:32:35;55.88;46.25;67.75;;
77133;Laerm;26708;50.304;19.028;2023-11-22T07:34:41;58.07;46.48;74.04;;
77133;Laerm;26708;50.304;19.028;2023-11-22T07:36:43;60.67;46.47;81.56;;
77133;Laerm;26708;50.304;19.028;2023-11-22T07:38:49;55.05;46.38;68.27;;
77133;Laerm;26708;50.304;19.028;2023-11-22T07:40:55;56.39;46.11;68.23;;
77133;Laerm;26708;50.304;19.028;2023-11-22T07:43:03;61.27;47.07;73.06;;
77133;Laerm;26708;50.304;19.028;2023-11-22T07:45:10;54.98;45.76;68.75;;
77133;Laerm;26708;50.304;19.028;2023-11-22T07:47:17;55.28;46.06;68.23;;
77133;Laerm;26708;50.304;19.028;2023-11-22T07:49:19;57.60;46.27;66.57;;
77133;Laerm;26708;50.304;19.028;2023-11-22T07:51:25;56.20;46.21;68.17;;
77133;Laerm;26708;50.304;19.028;2023-11-22T07:53:29;56.86;46.50;66.93;;
77133;Laerm;26708;50.304;19.028;2023-11-22T07:55:31;52.02;46.02;63.99;;
77133;Laerm;26708;50.304;19.028;2023-11-22T07:57:39;57.50;45.77;68.95;;
77133;Laerm;26708;50.304;19.028;2023-11-22T07:59:47;56.46;46.19;68.12;;
77133;Laerm;26708;50.304;19.028;2023-11-22T08:01:51;56.43;45.94;71.40;;
77133;Laerm;26708;50.304;19.028;2023-11-22T08:03:57;57.97;46.81;69.25;;
77133;Laerm;26708;50.304;19.028;2023-11-22T08:06:02;55.06;45.96;72.91;;
77133;Laerm;26708;50.304;19.028;2023-11-22T08:08:07;57.07;45.87;67.37;;
77133;Laerm;26708;50.304;19.028;2023-11-22T08:10:13;56.18;45.86;69.42;;
77133;Laerm;26708;50.304;19.028;2023-11-22T08:12:26;58.50;46.41;68.59;;
77133;Laerm;26708;50.304;19.028;2023-11-22T08:14:31;55.34;45.19;67.07;;
77133;Laerm;26708;50.304;19.028;2023-11-22T08:16:36;56.20;46.37;67.51;;
77133;Laerm;26708;50.304;19.028;2023-11-22T08:18:44;55.76;45.75;71.08;;
77133;Laerm;26708;50.304;19.028;2023-11-22T08:20:50;54.72;46.69;67.12;;
77133;Laerm;26708;50.304;19.028;2023-11-22T08:22:55;58.85;46.29;69.40;;
77133;Laerm;26708;50.304;19.028;2023-11-22T08:25:00;57.47;46.53;69.16;;
77133;Laerm;26708;50.304;19.028;2023-11-22T08:27:02;58.14;45.37;74.37;;
77133;Laerm;26708;50.304;19.028;2023-11-22T08:29:09;58.37;46.13;72.83;;
77133;Laerm;26708;50.304;19.028;2023-11-22T08:31:16;61.56;46.55;76.71;;
77133;Laerm;26708;50.304;19.028;2023-11-22T08:33:37;56.06;46.06;68.18;;
77133;Laerm;26708;50.304;19.028;2023-11-22T08:35:44;60.16;46.63;74.20;;
77133;Laerm;26708;50.304;19.028;2023-11-22T08:37:52;56.45;46.34;72.07;;
77133;Laerm;26708;50.304;19.028;2023-11-22T08:40:01;65.06;47.06;84.41;;
77133;Laerm;26708;50.304;19.028;2023-11-22T08:42:05;58.56;48.52;66.58;;
77133;Laerm;26708;50.304;19.028;2023-11-22T08:44:11;59.63;48.20;74.61;;
77133;Laerm;26708;50.304;19.028;2023-11-22T08:46:16;59.53;47.62;70.91;;
77133;Laerm;26708;50.304;19.028;2023-11-22T08:48:21;56.85;46.75;68.01;;
77133;Laerm;26708;50.304;19.028;2023-11-22T08:50:31;58.42;46.81;69.81;;
77133;Laerm;26708;50.304;19.028;2023-11-22T08:52:37;56.96;46.93;68.22;;
77133;Laerm;26708;50.304;19.028;2023-11-22T08:54:44;53.90;46.04;69.25;;
77133;Laerm;26708;50.304;19.028;2023-11-22T08:56:52;61.22;46.99;78.09;;
77133;Laerm;26708;50.304;19.028;2023-11-22T08:58:53;58.12;46.63;69.60;;
77133;Laerm;26708;50.304;19.028;2023-11-22T09:01:02;63.82;46.11;84.69;;
77133;Laerm;26708;50.304;19.028;2023-11-22T09:03:06;53.89;45.27;67.56;;
77133;Laerm;26708;50.304;19.028;2023-11-22T09:05:16;58.11;46.51;72.45;;
77133;Laerm;26708;50.304;19.028;2023-11-22T09:07:26;58.93;46.25;71.32;;
77133;Laerm;26708;50.304;19.028;2023-11-22T09:09:30;60.33;46.83;69.70;;
77133;Laerm;26708;50.304;19.028;2023-11-22T09:11:36;56.21;45.31;68.55;;
77133;Laerm;26708;50.304;19.028;2023-11-22T09:13:42;59.32;45.94;72.09;;
77133;Laerm;26708;50.304;19.028;2023-11-22T09:15:50;57.80;45.94;72.58;;
77133;Laerm;26708;50.304;19.028;2023-11-22T09:17:55;57.21;46.10;72.82;;
77133;Laerm;26708;50.304;19.028;2023-11-22T09:19:59;54.13;47.09;66.33;;
77133;Laerm;26708;50.304;19.028;2023-11-22T09:22:05;56.45;46.47;67.15;;
77133;Laerm;26708;50.304;19.028;2023-11-22T09:24:15;59.52;46.00;71.21;;
77133;Laerm;26708;50.304;19.028;2023-11-22T09:26:19;72.11;47.75;91.19;;
77133;Laerm;26708;50.304;19.028;2023-11-22T09:28:24;55.32;45.41;65.05;;
77133;Laerm;26708;50.304;19.028;2023-11-22T09:30:31;53.89;46.48;65.87;;
77133;Laerm;26708;50.304;19.028;2023-11-22T09:32:36;55.77;46.35;69.33;;
77133;Laerm;26708;50.304;19.028;2023-11-22T09:34:42;57.20;46.66;70.04;;
77133;Laerm;26708;50.304;19.028;2023-11-22T09:36:47;56.52;45.87;73.12;;
77133;Laerm;26708;50.304;19.028;2023-11-22T09:38:51;56.17;46.37;67.59;;
77133;Laerm;26708;50.304;19.028;2023-11-22T09:41:00;58.86;46.66;69.49;;
77133;Laerm;26708;50.304;19.028;2023-11-22T09:43:05;58.91;45.77;72.66;;
77133;Laerm;26708;50.304;19.028;2023-11-22T09:45:10;60.83;46.62;73.84;;
77133;Laerm;26708;50.304;19.028;2023-11-22T09:47:20;59.02;46.11;71.70;;
77133;Laerm;26708;50.304;19.028;2023-11-22T09:49:31;54.43;45.91;70.86;;
77133;Laerm;26708;50.304;19.028;2023-11-22T09:51:39;57.26;46.25;69.97;;
77133;Laerm;26708;50.304;19.028;2023-11-22T09:53:56;58.84;46.66;74.12;;
77133;Laerm;26708;50.304;19.028;2023-11-22T09:56:09;58.28;46.17;68.90;;
77133;Laerm;26708;50.304;19.028;2023-11-22T09:58:21;55.75;45.09;69.64;;
77133;Laerm;26708;50.304;19.028;2023-11-22T10:00:29;58.96;46.54;71.21;;
77133;Laerm;26708;50.304;19.028;2023-11-22T10:02:39;53.77;45.89;68.85;;
77133;Laerm;26708;50.304;19.028;2023-11-22T10:04:43;60.35;45.98;78.87;;
77133;Laerm;26708;50.304;19.028;2023-11-22T10:06:52;56.08;45.92;70.79;;
77133;Laerm;26708;50.304;19.028;2023-11-22T10:08:57;56.37;46.28;72.09;;
77133;Laerm;26708;50.304;19.028;2023-11-22T10:11:02;58.43;46.53;68.37;;
77133;Laerm;26708;50.304;19.028;2023-11-22T10:13:10;57.55;46.81;70.35;;
77133;Laerm;26708;50.304;19.028;2023-11-22T10:15:18;55.17;46.48;69.80;;
77133;Laerm;26708;50.304;19.028;2023-11-22T10:17:24;57.18;46.43;68.97;;
77133;Laerm;26708;50.304;19.028;2023-11-22T10:19:28;56.69;45.95;70.67;;
77133;Laerm;26708;50.304;19.028;2023-11-22T10:21:34;57.50;46.08;69.70;;
77133;Laerm;26708;50.304;19.028;2023-11-22T10:23:40;58.05;46.83;67.92;;
77133;Laerm;26708;50.304;19.028;2023-11-22T10:25:48;58.72;46.72;73.44;;
77133;Laerm;26708;50.304;19.028;2023-11-22T10:27:54;58.31;45.86;69.73;;
77133;Laerm;26708;50.304;19.028;2023-11-22T10:29:59;58.81;46.19;71.12;;
77133;Laerm;26708;50.304;19.028;2023-11-22T10:32:05;56.52;46.30;67.68;;
77133;Laerm;26708;50.304;19.028;2023-11-22T10:34:12;57.67;46.53;71.76;;
77133;Laerm;26708;50.304;19.028;2023-11-22T10:36:17;56.49;45.83;72.77;;
77133;Laerm;26708;50.304;19.028;2023-11-22T10:38:22;53.89;46.23;66.22;;
77133;Laerm;26708;50.304;19.028;2023-11-22T10:40:29;57.63;46.06;70.22;;
77133;Laerm;26708;50.304;19.028;2023-11-22T10:42:34;56.92;46.90;72.15;;
77133;Laerm;26708;50.304;19.028;2023-11-22T10:44:42;55.31;46.46;67.61;;
77133;Laerm;26708;50.304;19.028;2023-11-22T10:46:51;58.38;46.99;69.00;;
77133;Laerm;26708;50.304;19.028;2023-11-22T10:48:57;59.09;46.07;69.60;;
77133;Laerm;26708;50.304;19.028;2023-11-22T10:51:05;53.62;45.81;66.46;;
77133;Laerm;26708;50.304;19.028;2023-11-22T10:53:16;60.12;48.12;71.27;;
77133;Laerm;26708;50.304;19.028;2023-11-22T10:55:27;58.07;48.21;67.48;;
77133;Laerm;26708;50.304;19.028;2023-11-22T10:57:44;59.54;48.74;71.49;;
77133;Laerm;26708;50.304;19.028;2023-11-22T10:59:58;59.49;46.57;73.00;;
77133;Laerm;26708;50.304;19.028;2023-11-22T11:02:18;61.16;47.40;73.02;;
77133;Laerm;26708;50.304;19.028;2023-11-22T11:04:33;56.54;46.89;67.82;;
77133;Laerm;26708;50.304;19.028;2023-11-22T11:06:47;55.49;46.05;69.18;;
77133;Laerm;26708;50.304;19.028;2023-11-22T11:08:53;58.12;46.45;69.93;;
77133;Laerm;26708;50.304;19.028;2023-11-22T11:11:05;58.11;46.24;71.21;;
77133;Laerm;26708;50.304;19.028;2023-11-22T11:13:15;57.93;46.89;71.20;;
77133;Laerm;26708;50.304;19.028;2023-11-22T11:15:21;56.72;46.52;70.91;;
77133;Laerm;26708;50.304;19.028;2023-11-22T11:17:27;61.21;46.50;76.52;;
77133;Laerm;26708;50.304;19.028;2023-11-22T11:19:33;58.12;45.78;70.45;;
77133;Laerm;26708;50.304;19.028;2023-11-22T11:21:39;56.36;46.65;66.73;;
77133;Laerm;26708;50.304;19.028;2023-11-22T11:23:44;56.57;46.98;67.65;;
77133;Laerm;26708;50.304;19.028;2023-11-22T11:25:49;59.15;46.92;69.98;;
77133;Laerm;26708;50.304;19.028;2023-11-22T11:28:10;54.01;46.47;72.95;;
77133;Laerm;26708;50.304;19.028;2023-11-22T11:30:42;60.20;46.27;72.92;;
77133;Laerm;26708;50.304;19.028;2023-11-22T11:32:51;54.83;46.17;66.95;;
77133;Laerm;26708;50.304;19.028;2023-11-22T11:34:56;59.28;46.11;69.87;;